Rochester, NY

11:04 PM EDT on August 24, 2016 (GMT -0400)
Portsmouth & University, NOTA | | Change Station

Elev 502 ft 43.15 °N, 77.58 °W | Updated 8 minutes ago

Mostly Cloudy
Mostly Cloudy
72.9 °F
Feels Like 75 °F
N
0.0
Wind Variable Wind from NNE

Today
High -- | Low -- °F
--% Chance of Precip.
Yesterday
High -- | Low -- °F
Precip. -- in
Pressure 30.03 in
Visibility 10.0 miles
Clouds Scattered Clouds 8500 ft
Mostly Cloudy 18000 ft
Heat Index 75 °F
Dew Point 64 °F
Humidity 73%
Rainfall 0.00 in
Snow Depth Not available.
6:26 AM 7:58 PM
Waning Gibbous, 50% visible
METAR KROC 250254Z 21003KT 10SM SCT085 BKN180 23/17 A3004 RMK AO2 SLP168 T02330167 58001
Pressure 30.03 in
Visibility 10.0 miles
Clouds Scattered Clouds 8500 ft
Mostly Cloudy 18000 ft
Heat Index 75 °F
Dew Point 64 °F
Humidity 73%
Rainfall 0.00 in
Snow Depth Not available.
6:26 AM 7:58 PM
Waning Gibbous, 50% visible
METAR KROC 250254Z 21003KT 10SM SCT085 BKN180 23/17 A3004 RMK AO2 SLP168 T02330167 58001

10-Day Weather Forecast

Almanac

Astronomy

Aug. 24, 2016 Rise Set
Actual Time
Civil Twilight
Nautical Twilight
Astronomical Twilight
Moon
Length of Visible Light
Length of Day
Tomorrow will be .
, % of the Moon is Illuminated

Today's Extremes

State Highs State Lows

Community

WunderPhotos

Upload Photos

1,934,787 photos uploaded!

WunderBlog® & News

Nearby

Air Quality

  Air Quality AQ Index Pollutant
Not available.

Snow Depth

Station Depth Elevation

Earthquake Activity

City Distance Mag. Time & Date
Minimum magnitude displayed is 2.5.

Coastal Water Temperatures

Place Temperature

Stations

Nearby Weather Stations

Station Location Temp. Windchill Dew Point Humidity Wind Precip. Elev Updated Type
                   

Watches & Warnings

There are currently no watches in effect.